X  Schlie├čen Metar Luftfahrt Wetterdaten     KRYV Watertown Municipal Airport
Temperatur
39°F Temperatur
39°F Taupunkt
100% Feuchtigkeit



Wind
6 MPH
10 KM/H
3 M/S
5 KTS



30°
NNO
Aktuelle Wetterlage

Nebel Nebel
Luftdruck 1010.12 (hPa) - 29.83 (inHg)
Sichtweite 3.7 (Meile) - 6 (km)
Flughafen
Flughafen Code KRYV

Position : Watertown Municipal Airport
Entfernung: 8 (mi)

Metar:
KRYV 251335Z AUTO 03005KT 4SM BR OVC004 04/04 A2983 RMK AO2 T00410041

Zeit: 25-11-2020 07:35 CST